createdAt,value
2023-03-02T00:01:41.099Z,3.98
2023-03-02T00:04:15.453Z,3.92
2023-03-02T00:06:43.552Z,3.87
2023-03-02T00:09:11.488Z,3.89
2023-03-02T00:11:39.656Z,3.93
2023-03-02T00:14:07.549Z,3.96
2023-03-02T00:16:35.529Z,4.03
2023-03-02T00:19:03.484Z,3.96
2023-03-02T00:21:32.833Z,3.97
2023-03-02T00:24:00.720Z,3.94
2023-03-02T00:26:28.571Z,3.94
2023-03-02T00:28:57.027Z,4.00
2023-03-02T00:31:24.956Z,4.01
2023-03-02T00:33:54.210Z,4.05
2023-03-02T00:36:24.302Z,4.05
2023-03-02T00:38:53.907Z,3.97
2023-03-02T00:41:22.467Z,3.88
2023-03-02T00:43:51.566Z,3.85
2023-03-02T00:46:22.255Z,3.80
2023-03-02T00:48:50.562Z,3.76
2023-03-02T00:51:18.965Z,3.71
2023-03-02T00:53:46.958Z,3.64
2023-03-02T00:56:16.227Z,3.59
2023-03-02T00:58:49.106Z,3.57
2023-03-02T01:01:18.671Z,3.57
2023-03-02T01:03:50.052Z,3.53
2023-03-02T01:06:20.628Z,3.51
2023-03-02T01:08:49.087Z,3.46
2023-03-02T01:11:21.031Z,3.47
2023-03-02T01:13:50.181Z,3.44
2023-03-02T01:16:18.264Z,3.44
2023-03-02T01:18:46.206Z,3.43
2023-03-02T01:21:16.575Z,3.47
2023-03-02T01:23:44.659Z,3.44
2023-03-02T01:26:12.764Z,3.33
2023-03-02T01:28:41.981Z,3.33
2023-03-02T01:31:09.930Z,3.31
2023-03-02T01:33:37.878Z,3.27
2023-03-02T01:36:06.451Z,3.20
2023-03-02T01:38:34.418Z,3.16
2023-03-02T01:41:02.260Z,2.98
2023-03-02T01:43:30.214Z,3.11
2023-03-02T01:46:04.110Z,3.08
2023-03-02T01:48:45.765Z,3.04
2023-03-02T01:51:17.451Z,2.96
2023-03-02T01:53:49.357Z,2.97
2023-03-02T01:56:21.493Z,2.94
2023-03-02T01:58:51.580Z,2.87
2023-03-02T02:01:21.148Z,3.00
2023-03-02T02:03:51.819Z,3.18
2023-03-02T02:06:25.002Z,3.33
2023-03-02T02:08:55.346Z,3.43
2023-03-02T02:11:23.250Z,3.45
2023-03-02T02:13:55.990Z,3.58
2023-03-02T02:16:26.256Z,3.62
2023-03-02T02:18:54.270Z,3.63
2023-03-02T02:21:23.185Z,3.61
2023-03-02T02:24:08.790Z,3.64
2023-03-02T02:26:43.570Z,3.70
2023-03-02T02:29:15.734Z,3.74
2023-03-02T02:31:47.937Z,3.77
2023-03-02T02:34:22.468Z,3.79
2023-03-02T02:36:56.325Z,3.72
2023-03-02T02:39:29.996Z,3.67
2023-03-02T02:42:03.038Z,3.61
2023-03-02T02:44:32.821Z,3.49
2023-03-02T02:47:01.349Z,3.48
2023-03-02T02:49:33.368Z,3.48
2023-03-02T02:52:01.304Z,3.50
2023-03-02T02:54:30.999Z,3.49
2023-03-02T02:57:02.503Z,3.53
2023-03-02T02:59:36.374Z,3.51
2023-03-02T03:02:04.532Z,3.36
2023-03-02T03:04:33.602Z,3.18
2023-03-02T03:07:04.221Z,3.09
2023-03-02T03:09:33.425Z,3.15
2023-03-02T03:12:08.147Z,3.22
2023-03-02T03:14:39.332Z,3.30
2023-03-02T03:17:12.164Z,3.35
2023-03-02T03:19:46.104Z,3.37
2023-03-02T03:22:15.388Z,3.29
2023-03-02T03:24:45.974Z,3.13
2023-03-02T03:27:17.706Z,3.21
2023-03-02T03:29:48.815Z,3.21
2023-03-02T03:32:19.259Z,3.23
2023-03-02T03:34:48.042Z,3.19
2023-03-02T03:37:32.338Z,3.13
2023-03-02T03:40:00.996Z,3.15
2023-03-02T03:42:32.279Z,3.16
2023-03-02T03:45:01.079Z,3.27
2023-03-02T03:47:29.164Z,3.33
2023-03-02T03:49:57.154Z,3.42
2023-03-02T03:52:30.716Z,3.44
2023-03-02T03:55:07.347Z,3.40
2023-03-02T03:57:37.300Z,3.37
2023-03-02T04:00:08.931Z,3.30
2023-03-02T04:02:42.660Z,3.21
2023-03-02T04:05:13.176Z,3.30
2023-03-02T04:07:41.882Z,3.32
2023-03-02T04:10:12.260Z,3.30
2023-03-02T04:12:43.430Z,3.24
2023-03-02T04:15:15.635Z,3.28
2023-03-02T04:17:45.881Z,3.30
2023-03-02T04:20:16.925Z,3.22
2023-03-02T04:22:50.482Z,3.06
2023-03-02T04:25:22.126Z,3.04
2023-03-02T04:27:54.790Z,3.11
2023-03-02T04:30:26.716Z,3.13
2023-03-02T04:32:57.444Z,3.16
2023-03-02T04:35:27.145Z,3.18
2023-03-02T04:37:55.087Z,3.15
2023-03-02T04:40:23.144Z,3.01
2023-03-02T04:42:51.010Z,2.99
2023-03-02T04:45:20.700Z,2.89
2023-03-02T04:47:48.538Z,2.85
2023-03-02T04:50:16.845Z,2.85
2023-03-02T04:52:44.689Z,2.85
2023-03-02T04:55:19.146Z,2.75
2023-03-02T04:57:47.034Z,2.68
2023-03-02T05:00:16.978Z,2.62
2023-03-02T05:02:46.811Z,2.57
2023-03-02T05:05:17.814Z,2.52
2023-03-02T05:07:45.844Z,2.61
2023-03-02T05:10:14.697Z,2.65
2023-03-02T05:12:57.992Z,2.65
2023-03-02T05:15:28.128Z,2.54
2023-03-02T05:17:58.101Z,2.54
2023-03-02T05:20:30.286Z,2.65
2023-03-02T05:23:01.426Z,2.54
2023-03-02T05:25:31.905Z,2.54
2023-03-02T05:28:00.012Z,2.51
2023-03-02T05:30:28.230Z,2.47
2023-03-02T05:32:57.563Z,2.38
2023-03-02T05:35:25.683Z,2.42
2023-03-02T05:37:53.674Z,2.48
2023-03-02T05:40:22.076Z,2.48
2023-03-02T05:42:50.694Z,2.55
2023-03-02T05:45:21.669Z,2.57
2023-03-02T05:47:49.645Z,2.64
2023-03-02T05:50:19.120Z,2.68
2023-03-02T05:52:47.040Z,2.79
2023-03-02T05:55:16.430Z,2.88
2023-03-02T05:57:44.923Z,2.90
2023-03-02T06:00:14.778Z,2.92
2023-03-02T06:02:42.757Z,2.93
2023-03-02T06:05:12.674Z,2.90
2023-03-02T06:07:42.070Z,2.95
2023-03-02T06:10:12.302Z,2.96
2023-03-02T06:12:40.712Z,2.90
2023-03-02T06:15:10.459Z,2.82
2023-03-02T06:17:38.345Z,2.79
2023-03-02T06:20:11.230Z,2.87
2023-03-02T06:22:41.175Z,2.96
2023-03-02T06:25:12.607Z,3.02
2023-03-02T06:27:41.239Z,2.93
2023-03-02T06:30:12.009Z,2.95
2023-03-02T06:32:40.039Z,3.18
2023-03-02T06:35:09.462Z,3.31
2023-03-02T06:37:37.716Z,3.41
2023-03-02T06:40:10.295Z,3.54
2023-03-02T06:42:40.326Z,3.49
2023-03-02T06:45:09.922Z,3.36
2023-03-02T06:47:37.909Z,3.26
2023-03-02T06:50:07.408Z,3.19
2023-03-02T06:52:36.027Z,3.22
2023-03-02T06:55:04.127Z,3.29
2023-03-02T06:57:34.201Z,3.30
2023-03-02T07:00:09.441Z,3.27
2023-03-02T07:02:37.478Z,3.18
2023-03-02T07:05:06.354Z,3.23
2023-03-02T07:07:34.309Z,3.19
2023-03-02T07:10:02.205Z,3.13
2023-03-02T07:12:30.044Z,3.35
2023-03-02T07:14:57.934Z,3.39
2023-03-02T07:17:27.242Z,3.60
2023-03-02T07:19:55.041Z,3.81
2023-03-02T07:22:23.315Z,3.97
2023-03-02T07:24:51.161Z,4.06
2023-03-02T07:27:19.061Z,4.13
2023-03-02T07:29:46.983Z,4.26
2023-03-02T07:32:14.983Z,4.37
2023-03-02T07:34:44.258Z,4.38
2023-03-02T07:37:12.172Z,4.37
2023-03-02T07:39:40.088Z,4.32
2023-03-02T07:42:09.058Z,4.28
2023-03-02T07:44:36.993Z,4.34
2023-03-02T07:47:05.193Z,4.53
2023-03-02T07:49:35.242Z,4.68
2023-03-02T07:52:04.971Z,4.80
2023-03-02T07:54:32.823Z,4.88
2023-03-02T07:57:01.015Z,4.96
2023-03-02T07:59:29.520Z,4.99
2023-03-02T08:01:58.424Z,5.03
2023-03-02T08:04:26.686Z,5.07
2023-03-02T08:06:54.569Z,5.05
2023-03-02T08:09:23.829Z,5.10
2023-03-02T08:11:51.694Z,5.16
2023-03-02T08:14:19.629Z,5.23
2023-03-02T08:16:47.791Z,5.14
2023-03-02T08:19:15.636Z,5.13
2023-03-02T08:21:43.530Z,5.20
2023-03-02T08:24:12.396Z,5.21
2023-03-02T08:26:41.582Z,5.26
2023-03-02T08:29:09.437Z,5.35
2023-03-02T08:31:37.414Z,5.46
2023-03-02T08:34:05.853Z,5.54
2023-03-02T08:36:34.048Z,5.60
2023-03-02T08:39:02.213Z,5.69
2023-03-02T08:41:30.685Z,5.77
2023-03-02T08:44:00.279Z,5.77
2023-03-02T08:46:28.406Z,5.78
2023-03-02T08:48:56.347Z,5.74
2023-03-02T08:51:26.483Z,5.64
2023-03-02T08:53:56.571Z,5.73
2023-03-02T08:56:26.374Z,5.73
2023-03-02T08:58:56.600Z,5.74
2023-03-02T09:01:28.670Z,5.81
2023-03-02T09:03:57.577Z,5.81
2023-03-02T09:06:25.568Z,5.88
2023-03-02T09:08:53.491Z,5.93
2023-03-02T09:11:21.351Z,6.00
2023-03-02T09:13:49.490Z,5.96
2023-03-02T09:16:20.545Z,5.99
2023-03-02T09:18:49.904Z,6.09
2023-03-02T09:21:17.859Z,6.20
2023-03-02T09:23:45.973Z,6.26
2023-03-02T09:26:13.943Z,6.29
2023-03-02T09:28:41.891Z,6.26
2023-03-02T09:31:10.079Z,6.26
2023-03-02T09:33:38.123Z,6.32
2023-03-02T09:36:13.432Z,6.34
2023-03-02T09:38:41.433Z,6.37
2023-03-02T09:41:35.747Z,6.39
2023-03-02T09:44:21.235Z,6.39
2023-03-02T09:46:52.637Z,6.41
2023-03-02T09:49:30.981Z,6.41
2023-03-02T09:52:12.321Z,6.44
2023-03-02T09:54:41.979Z,6.48
2023-03-02T09:57:22.294Z,6.53
2023-03-02T09:59:55.184Z,6.59
2023-03-02T10:02:28.265Z,6.60
2023-03-02T10:04:58.452Z,6.62
2023-03-02T10:07:30.209Z,6.62
2023-03-02T10:10:14.728Z,6.65
2023-03-02T10:12:52.796Z,6.70
2023-03-02T10:15:27.130Z,6.82
2023-03-02T10:18:02.009Z,6.94
2023-03-02T10:20:35.831Z,7.05
2023-03-02T10:23:17.500Z,7.11
2023-03-02T10:25:51.844Z,7.06
2023-03-02T10:28:22.105Z,7.13
2023-03-02T10:30:54.850Z,7.26
2023-03-02T10:33:23.250Z,7.39
2023-03-02T10:35:53.591Z,7.41
2023-03-02T10:38:24.717Z,7.41
2023-03-02T10:41:00.062Z,7.47
2023-03-02T10:43:32.781Z,7.51
2023-03-02T10:46:02.881Z,7.51
2023-03-02T10:48:30.995Z,7.47
2023-03-02T10:51:00.350Z,7.48
2023-03-02T10:53:30.003Z,7.47
2023-03-02T10:55:57.906Z,7.48
2023-03-02T10:58:30.308Z,7.44
2023-03-02T11:01:03.044Z,7.54
2023-03-02T11:03:32.164Z,7.63
2023-03-02T11:06:12.525Z,7.69
2023-03-02T11:08:41.798Z,7.77
2023-03-02T11:11:23.026Z,7.81
2023-03-02T11:13:51.083Z,7.98
2023-03-02T11:16:26.220Z,8.06
2023-03-02T11:18:58.530Z,8.09
2023-03-02T11:21:32.239Z,8.16
2023-03-02T11:24:10.783Z,8.17
2023-03-02T11:26:42.532Z,8.16
2023-03-02T11:29:22.826Z,8.12
2023-03-02T11:31:53.392Z,8.14
2023-03-02T11:34:29.057Z,8.21
2023-03-02T11:37:07.076Z,8.25
2023-03-02T11:39:56.061Z,8.34
2023-03-02T11:42:29.608Z,8.35
2023-03-02T11:44:58.126Z,8.29
2023-03-02T11:47:26.231Z,8.34
2023-03-02T11:49:57.028Z,8.35
2023-03-02T11:52:28.466Z,8.44
2023-03-02T11:55:04.204Z,8.50
2023-03-02T11:57:37.483Z,8.53
2023-03-02T12:00:16.498Z,8.56
2023-03-02T12:02:45.539Z,8.54
2023-03-02T12:05:25.761Z,8.52
2023-03-02T12:08:00.188Z,8.60
2023-03-02T12:10:35.679Z,8.61
2023-03-02T12:13:19.262Z,8.67
2023-03-02T12:15:48.408Z,8.64
2023-03-02T12:18:32.196Z,8.68
2023-03-02T12:21:02.186Z,8.72
2023-03-02T12:23:31.103Z,8.75
2023-03-02T12:26:07.566Z,8.81
2023-03-02T12:28:37.337Z,8.90
2023-03-02T12:31:09.566Z,8.99
2023-03-02T12:33:47.284Z,9.14
2023-03-02T12:36:19.440Z,9.24
2023-03-02T12:38:58.591Z,9.28
2023-03-02T12:41:40.121Z,9.40
2023-03-02T12:44:27.925Z,9.58
2023-03-02T12:46:56.889Z,9.65
2023-03-02T12:49:42.935Z,9.66
2023-03-02T12:52:24.140Z,9.89
2023-03-02T12:55:05.377Z,10.04
2023-03-02T12:57:37.847Z,10.11
2023-03-02T13:00:16.577Z,10.16
2023-03-02T13:02:48.304Z,10.30
2023-03-02T13:05:20.336Z,10.46
2023-03-02T13:07:56.555Z,10.53
2023-03-02T13:10:30.264Z,10.60
2023-03-02T13:13:00.447Z,10.68
2023-03-02T13:15:28.326Z,10.81
2023-03-02T13:17:58.568Z,10.95
2023-03-02T13:20:28.931Z,11.02
2023-03-02T13:22:57.136Z,11.05
2023-03-02T13:25:27.934Z,11.16
2023-03-02T13:27:57.274Z,11.23
2023-03-02T13:30:29.551Z,11.27
2023-03-02T13:33:03.134Z,11.40
2023-03-02T13:35:32.648Z,11.49
2023-03-02T13:38:04.520Z,11.61
2023-03-02T13:40:38.969Z,11.73
2023-03-02T13:43:24.667Z,11.79
2023-03-02T13:45:55.982Z,12.00
2023-03-02T13:48:24.823Z,12.10
2023-03-02T13:50:55.886Z,12.19
2023-03-02T13:53:24.378Z,12.26
2023-03-02T13:55:54.064Z,12.30
2023-03-02T13:58:23.846Z,12.32
2023-03-02T14:00:52.631Z,12.37
2023-03-02T14:03:26.286Z,12.50
2023-03-02T14:05:54.910Z,12.68
2023-03-02T14:08:23.374Z,12.75
2023-03-02T14:10:53.738Z,12.71
2023-03-02T14:13:25.002Z,12.72
2023-03-02T14:15:54.950Z,12.75
2023-03-02T14:18:32.087Z,12.82
2023-03-02T14:21:00.020Z,12.93
2023-03-02T14:23:29.124Z,12.98
2023-03-02T14:25:58.334Z,13.03
2023-03-02T14:28:31.179Z,13.04
2023-03-02T14:31:00.644Z,13.11
2023-03-02T14:33:30.125Z,13.18
2023-03-02T14:35:59.760Z,13.26
2023-03-02T14:38:28.783Z,13.42
2023-03-02T14:40:57.385Z,13.55
2023-03-02T14:43:25.553Z,13.57
2023-03-02T14:45:53.525Z,13.59
2023-03-02T14:48:21.568Z,13.64
2023-03-02T14:50:52.405Z,13.69
2023-03-02T14:53:24.053Z,13.69
2023-03-02T14:55:52.040Z,13.69
2023-03-02T14:58:21.578Z,13.68
2023-03-02T15:00:49.459Z,13.70
2023-03-02T15:03:22.603Z,13.71
2023-03-02T15:06:00.811Z,13.79
2023-03-02T15:08:29.828Z,13.93
2023-03-02T15:10:58.043Z,14.05
2023-03-02T15:13:25.991Z,14.06
2023-03-02T15:15:53.851Z,14.00
2023-03-02T15:18:21.755Z,13.82
2023-03-02T15:20:49.748Z,13.86
2023-03-02T15:23:19.078Z,13.91
2023-03-02T15:25:46.941Z,13.97
2023-03-02T15:28:14.886Z,13.95
2023-03-02T15:30:42.753Z,13.88
2023-03-02T15:33:10.733Z,13.88
2023-03-02T15:35:39.808Z,13.86
2023-03-02T15:38:07.854Z,13.80
2023-03-02T15:40:37.146Z,13.79
2023-03-02T15:43:05.022Z,13.73
2023-03-02T15:45:32.932Z,13.65
2023-03-02T15:48:00.793Z,13.63
2023-03-02T15:50:28.707Z,13.65
2023-03-02T15:52:57.484Z,13.55
2023-03-02T15:55:25.363Z,13.46
2023-03-02T15:57:57.949Z,13.37
2023-03-02T16:00:25.958Z,13.23
2023-03-02T16:02:53.901Z,13.09
2023-03-02T16:05:21.803Z,12.96
2023-03-02T16:07:49.652Z,12.78
2023-03-02T16:10:19.678Z,12.65
2023-03-02T16:12:47.609Z,12.48
2023-03-02T16:15:17.126Z,12.28
2023-03-02T16:17:45.446Z,12.01
2023-03-02T16:20:13.884Z,11.85
2023-03-02T16:22:41.745Z,11.64
2023-03-02T16:25:10.297Z,11.42
2023-03-02T16:27:38.319Z,11.25
2023-03-02T16:30:07.002Z,11.12
2023-03-02T16:32:36.194Z,10.96
2023-03-02T16:35:04.161Z,10.81
2023-03-02T16:37:32.118Z,10.66
2023-03-02T16:40:00.041Z,10.55
2023-03-02T16:42:30.321Z,10.46
2023-03-02T16:44:58.301Z,10.35
2023-03-02T16:47:26.358Z,10.24
2023-03-02T16:49:55.652Z,10.17
2023-03-02T16:52:23.867Z,10.07
2023-03-02T16:54:51.730Z,9.95
2023-03-02T16:57:19.679Z,9.87
2023-03-02T16:59:47.578Z,9.75
2023-03-02T17:02:16.556Z,9.63
2023-03-02T17:04:44.675Z,9.49
2023-03-02T17:07:14.012Z,9.38
2023-03-02T17:09:42.137Z,9.27
2023-03-02T17:12:10.041Z,9.18
2023-03-02T17:14:37.958Z,9.08
2023-03-02T17:17:05.915Z,9.00
2023-03-02T17:19:33.955Z,8.97
2023-03-02T17:22:02.692Z,8.93
2023-03-02T17:24:32.516Z,8.87
2023-03-02T17:27:00.398Z,8.81
2023-03-02T17:29:28.332Z,8.76
2023-03-02T17:31:56.564Z,8.72
2023-03-02T17:34:28.558Z,8.66
2023-03-02T17:36:56.536Z,8.60
2023-03-02T17:39:24.618Z,8.56
2023-03-02T17:41:53.990Z,8.48
2023-03-02T17:44:22.293Z,8.47
2023-03-02T17:46:50.205Z,8.44
2023-03-02T17:49:18.120Z,8.38
2023-03-02T17:51:46.121Z,8.35
2023-03-02T17:54:14.084Z,8.29
2023-03-02T17:56:42.327Z,8.19
2023-03-02T17:59:12.482Z,8.21
2023-03-02T18:01:40.699Z,8.19
2023-03-02T18:04:08.600Z,8.15
2023-03-02T18:06:36.854Z,8.05
2023-03-02T18:09:05.004Z,8.13
2023-03-02T18:11:33.431Z,8.12
2023-03-02T18:14:01.470Z,8.11
2023-03-02T18:16:30.911Z,8.09
2023-03-02T18:18:58.813Z,8.09
2023-03-02T18:21:27.007Z,8.07
2023-03-02T18:23:55.081Z,8.06
2023-03-02T18:26:22.953Z,8.04
2023-03-02T18:28:50.911Z,7.97
2023-03-02T18:31:20.657Z,7.95
2023-03-02T18:33:50.209Z,7.88
2023-03-02T18:36:18.497Z,7.87
2023-03-02T18:38:46.717Z,7.93
2023-03-02T18:41:15.258Z,7.93
2023-03-02T18:43:43.604Z,7.90
2023-03-02T18:46:19.976Z,7.82
2023-03-02T18:48:49.679Z,7.72
2023-03-02T18:51:19.430Z,7.68
2023-03-02T18:53:48.071Z,7.67
2023-03-02T18:56:16.310Z,7.59
2023-03-02T18:58:44.374Z,7.54
2023-03-02T19:01:12.778Z,7.52
2023-03-02T19:03:41.714Z,7.46
2023-03-02T19:06:10.062Z,7.24
2023-03-02T19:08:39.553Z,7.27
2023-03-02T19:11:07.858Z,7.06
2023-03-02T19:13:36.012Z,7.24
2023-03-02T19:16:04.674Z,7.22
2023-03-02T19:18:33.251Z,7.21
2023-03-02T19:21:01.319Z,7.20
2023-03-02T19:23:29.817Z,7.18
2023-03-02T19:25:59.109Z,7.14
2023-03-02T19:28:27.550Z,7.13
2023-03-02T19:30:55.538Z,7.09
2023-03-02T19:33:24.916Z,7.04
2023-03-02T19:35:53.046Z,7.01
2023-03-02T19:38:22.734Z,6.95
2023-03-02T19:40:51.185Z,6.89
2023-03-02T19:43:21.192Z,6.90
2023-03-02T19:45:49.152Z,6.87
2023-03-02T19:48:17.068Z,6.77
2023-03-02T19:50:45.468Z,6.76
2023-03-02T19:53:14.141Z,6.75
2023-03-02T19:55:42.780Z,6.57
2023-03-02T19:58:16.931Z,6.68
2023-03-02T20:00:47.243Z,6.67
2023-03-02T20:03:15.284Z,6.58
2023-03-02T20:05:43.297Z,6.54
2023-03-02T20:08:11.661Z,6.51
2023-03-02T20:10:42.541Z,6.49
2023-03-02T20:13:11.310Z,6.39
2023-03-02T20:15:41.441Z,6.39
2023-03-02T20:18:12.973Z,6.40
2023-03-02T20:20:41.196Z,6.39
2023-03-02T20:23:09.201Z,6.32
2023-03-02T20:25:37.482Z,6.29
2023-03-02T20:28:06.916Z,6.27
2023-03-02T20:30:40.722Z,6.14
2023-03-02T20:33:11.543Z,6.08
2023-03-02T20:35:42.522Z,6.13
2023-03-02T20:38:14.755Z,6.21
2023-03-02T20:40:43.213Z,6.21
2023-03-02T20:43:11.253Z,6.19
2023-03-02T20:45:39.876Z,6.15
2023-03-02T20:48:08.466Z,6.03
2023-03-02T20:50:39.344Z,6.09
2023-03-02T20:53:08.833Z,6.12
2023-03-02T20:55:36.910Z,6.14
2023-03-02T20:58:06.293Z,6.14
2023-03-02T21:00:35.800Z,6.14
2023-03-02T21:03:03.967Z,6.13
2023-03-02T21:05:35.019Z,6.09
2023-03-02T21:08:04.692Z,6.03
2023-03-02T21:10:36.352Z,5.99
2023-03-02T21:13:07.698Z,5.96
2023-03-02T21:15:36.262Z,5.93
2023-03-02T21:18:04.492Z,5.91
2023-03-02T21:20:36.720Z,5.69
2023-03-02T21:23:06.032Z,5.75
2023-03-02T21:25:34.467Z,5.75
2023-03-02T21:28:02.430Z,5.68
2023-03-02T21:30:36.079Z,5.66
2023-03-02T21:33:04.564Z,5.63
2023-03-02T21:35:32.833Z,5.61
2023-03-02T21:38:04.698Z,5.55
2023-03-02T21:40:36.093Z,5.54
2023-03-02T21:43:05.801Z,5.54
2023-03-02T21:45:34.420Z,5.52
2023-03-02T21:48:02.949Z,5.46
2023-03-02T21:50:33.081Z,5.44
2023-03-02T21:53:00.928Z,5.25
2023-03-02T21:55:29.349Z,5.12
2023-03-02T21:57:59.025Z,5.12
2023-03-02T22:00:30.787Z,5.14
2023-03-02T22:02:58.661Z,5.23
2023-03-02T22:05:27.170Z,5.30
2023-03-02T22:07:55.273Z,5.36
2023-03-02T22:10:27.797Z,5.40
2023-03-02T22:12:58.563Z,5.41
2023-03-02T22:15:28.071Z,5.47
2023-03-02T22:17:56.585Z,5.43
2023-03-02T22:20:24.705Z,5.43
2023-03-02T22:22:55.349Z,5.26
2023-03-02T22:25:23.363Z,4.98
2023-03-02T22:27:51.647Z,4.70
2023-03-02T22:30:23.336Z,4.55
2023-03-02T22:32:51.302Z,4.32
2023-03-02T22:35:23.327Z,4.50
2023-03-02T22:37:52.800Z,4.63
2023-03-02T22:40:30.256Z,4.69
2023-03-02T22:43:11.008Z,4.75
2023-03-02T22:45:41.132Z,4.81
2023-03-02T22:48:15.704Z,4.84
2023-03-02T22:50:44.934Z,4.85
2023-03-02T22:53:28.596Z,4.84
2023-03-02T22:55:59.134Z,4.83
2023-03-02T22:58:37.270Z,4.81
2023-03-02T23:01:20.936Z,4.85
2023-03-02T23:03:50.939Z,4.94
2023-03-02T23:06:28.026Z,4.96
2023-03-02T23:08:57.705Z,4.98
2023-03-02T23:11:26.419Z,4.96
2023-03-02T23:13:55.736Z,4.85
2023-03-02T23:16:27.802Z,4.80
2023-03-02T23:18:59.187Z,4.69
2023-03-02T23:21:29.213Z,4.71
2023-03-02T23:23:57.157Z,4.68
2023-03-02T23:26:25.030Z,4.67
2023-03-02T23:28:52.918Z,4.70
2023-03-02T23:31:21.157Z,4.56
2023-03-02T23:33:50.541Z,4.72
2023-03-02T23:36:21.081Z,4.71
2023-03-02T23:38:49.519Z,4.67
2023-03-02T23:41:18.347Z,4.65
2023-03-02T23:43:46.238Z,4.62
2023-03-02T23:46:14.575Z,4.52
2023-03-02T23:48:43.017Z,4.44
2023-03-02T23:51:12.268Z,4.48
2023-03-02T23:53:40.320Z,4.48
2023-03-02T23:56:08.463Z,4.49
2023-03-02T23:58:36.322Z,4.43
